createdAt,value
2022-11-24T00:01:07.006Z,77.49
2022-11-24T00:03:34.027Z,77.49
2022-11-24T00:06:09.438Z,77.18
2022-11-24T00:08:37.581Z,77.23
2022-11-24T00:11:09.690Z,77.34
2022-11-24T00:13:39.218Z,76.97
2022-11-24T00:16:11.267Z,77.23
2022-11-24T00:18:39.847Z,76.88
2022-11-24T00:21:07.326Z,76.86
2022-11-24T00:23:35.066Z,76.87
2022-11-24T00:26:12.715Z,76.97
2022-11-24T00:28:40.439Z,76.84
2022-11-24T00:31:19.032Z,76.69
2022-11-24T00:33:51.673Z,77.02
2022-11-24T00:36:19.609Z,77.04
2022-11-24T00:38:46.720Z,76.98
2022-11-24T00:41:14.479Z,76.99
2022-11-24T00:43:41.291Z,77.22
2022-11-24T00:46:08.444Z,76.98
2022-11-24T00:48:35.639Z,77.23
2022-11-24T00:51:06.087Z,77.34
2022-11-24T00:53:33.265Z,77.42
2022-11-24T00:56:00.260Z,77.87
2022-11-24T00:58:27.117Z,78.17
2022-11-24T01:00:54.025Z,78.68
2022-11-24T01:03:21.552Z,79.28
2022-11-24T01:05:48.611Z,79.35
2022-11-24T01:08:15.496Z,80.31
2022-11-24T01:10:44.217Z,81.70
2022-11-24T01:13:12.262Z,82.37
2022-11-24T01:15:39.951Z,82.75
2022-11-24T01:18:06.968Z,82.93
2022-11-24T01:20:33.924Z,83.38
2022-11-24T01:23:03.744Z,83.51
2022-11-24T01:25:30.599Z,83.67
2022-11-24T01:27:57.619Z,84.03
2022-11-24T01:30:24.474Z,84.51
2022-11-24T01:32:51.302Z,84.40
2022-11-24T01:35:18.159Z,84.83
2022-11-24T01:37:44.920Z,84.94
2022-11-24T01:40:12.268Z,85.15
2022-11-24T01:42:53.208Z,85.86
2022-11-24T01:45:34.095Z,85.44
2022-11-24T01:48:05.753Z,85.51
2022-11-24T01:50:34.422Z,85.39
2022-11-24T01:53:01.313Z,85.54
2022-11-24T01:55:34.859Z,85.98
2022-11-24T01:58:19.148Z,85.99
2022-11-24T02:00:46.592Z,86.28
2022-11-24T02:03:18.870Z,86.00
2022-11-24T02:05:59.092Z,86.17
2022-11-24T02:08:30.089Z,87.26
2022-11-24T02:10:57.095Z,87.26
2022-11-24T02:13:25.252Z,87.54
2022-11-24T02:15:53.190Z,88.40
2022-11-24T02:18:20.047Z,88.52
2022-11-24T02:20:46.966Z,89.02
2022-11-24T02:23:28.445Z,89.39
2022-11-24T02:26:15.077Z,89.74
2022-11-24T02:28:43.166Z,90.28
2022-11-24T02:31:10.745Z,90.99
2022-11-24T02:33:38.721Z,91.44
2022-11-24T02:36:05.776Z,92.57
2022-11-24T02:38:34.486Z,92.70
2022-11-24T02:41:07.564Z,92.25
2022-11-24T02:43:42.534Z,92.51
2022-11-24T02:46:11.119Z,92.83
2022-11-24T02:48:38.735Z,92.98
2022-11-24T02:51:05.854Z,93.04
2022-11-24T02:53:32.783Z,92.91
2022-11-24T02:55:59.562Z,92.61
2022-11-24T02:58:26.306Z,92.60
2022-11-24T03:00:54.621Z,92.67
2022-11-24T03:03:22.001Z,92.45
2022-11-24T03:05:48.800Z,92.42
2022-11-24T03:08:15.859Z,91.82
2022-11-24T03:10:42.757Z,91.54
2022-11-24T03:13:09.562Z,91.32
2022-11-24T03:15:37.105Z,91.06
2022-11-24T03:18:04.105Z,90.70
2022-11-24T03:20:30.900Z,90.68
2022-11-24T03:22:57.836Z,90.37
2022-11-24T03:25:24.620Z,90.27
2022-11-24T03:27:51.384Z,90.29
2022-11-24T03:30:18.266Z,89.68
2022-11-24T03:32:45.088Z,89.50
2022-11-24T03:35:12.241Z,89.55
2022-11-24T03:37:39.150Z,89.33
2022-11-24T03:40:06.609Z,89.10
2022-11-24T03:42:33.446Z,89.06
2022-11-24T03:45:11.780Z,88.66
2022-11-24T03:47:50.903Z,88.21
2022-11-24T03:50:17.823Z,88.77
2022-11-24T03:52:44.570Z,87.88
2022-11-24T03:55:11.403Z,87.70
2022-11-24T03:57:38.351Z,87.92
2022-11-24T04:00:06.914Z,87.36
2022-11-24T04:02:33.733Z,87.04
2022-11-24T04:05:00.791Z,87.15
2022-11-24T04:07:27.627Z,87.25
2022-11-24T04:09:54.386Z,86.92
2022-11-24T04:12:39.618Z,87.32
2022-11-24T04:15:06.967Z,87.60
2022-11-24T04:17:33.888Z,87.65
2022-11-24T04:20:00.887Z,88.15
2022-11-24T04:22:27.599Z,88.73
2022-11-24T04:24:54.473Z,89.41
2022-11-24T04:27:21.527Z,89.81
2022-11-24T04:29:48.237Z,90.89
2022-11-24T04:32:14.915Z,90.91
2022-11-24T04:34:41.757Z,91.72
2022-11-24T04:37:08.704Z,91.87
2022-11-24T04:39:35.441Z,91.95
2022-11-24T04:42:02.451Z,92.70
2022-11-24T04:44:29.188Z,92.85
2022-11-24T04:46:55.980Z,92.71
2022-11-24T04:49:23.055Z,92.95
2022-11-24T04:51:50.874Z,92.63
2022-11-24T04:54:17.677Z,93.01
2022-11-24T04:56:44.834Z,92.69
2022-11-24T04:59:16.382Z,92.69
2022-11-24T05:01:44.217Z,92.54
2022-11-24T05:04:13.066Z,91.78
2022-11-24T05:06:40.256Z,92.28
2022-11-24T05:09:07.587Z,92.03
2022-11-24T05:11:34.878Z,92.19
2022-11-24T05:14:02.090Z,92.68
2022-11-24T05:16:28.884Z,92.85
2022-11-24T05:18:55.826Z,92.81
2022-11-24T05:21:22.547Z,93.36
2022-11-24T05:23:49.284Z,93.06
2022-11-24T05:26:16.151Z,93.52
2022-11-24T05:28:42.841Z,94.57
2022-11-24T05:31:09.599Z,95.48
2022-11-24T05:33:37.221Z,96.14
2022-11-24T05:36:06.543Z,96.55
2022-11-24T05:38:34.061Z,96.62
2022-11-24T05:41:02.032Z,96.62
2022-11-24T05:43:29.141Z,96.88
2022-11-24T05:46:00.435Z,96.96
2022-11-24T05:48:27.317Z,97.12
2022-11-24T05:50:58.264Z,96.89
2022-11-24T05:53:27.660Z,97.06
2022-11-24T05:55:54.548Z,97.49
2022-11-24T05:58:21.432Z,97.12
2022-11-24T06:00:48.327Z,97.51
2022-11-24T06:03:15.060Z,97.77
2022-11-24T06:05:47.011Z,97.95
2022-11-24T06:08:15.497Z,98.34
2022-11-24T06:10:43.460Z,98.66
2022-11-24T06:13:10.221Z,98.96
2022-11-24T06:15:37.994Z,99.04
2022-11-24T06:18:04.870Z,99.13
2022-11-24T06:20:32.985Z,99.13
2022-11-24T06:23:01.170Z,99.24
2022-11-24T06:25:28.800Z,99.71
2022-11-24T06:27:55.765Z,99.90
2022-11-24T06:30:22.579Z,99.59
2022-11-24T06:32:50.101Z,99.82
2022-11-24T06:35:17.491Z,99.46
2022-11-24T06:37:45.927Z,99.42
2022-11-24T06:40:15.502Z,99.23
2022-11-24T06:42:42.211Z,99.15
2022-11-24T06:45:09.845Z,99.60
2022-11-24T06:47:37.164Z,99.23
2022-11-24T06:50:04.616Z,99.26
2022-11-24T06:52:31.485Z,99.79
2022-11-24T06:54:58.217Z,99.79
2022-11-24T06:57:24.917Z,99.67
2022-11-24T06:59:51.803Z,99.93
2022-11-24T07:02:18.599Z,100.00
2022-11-24T07:04:45.338Z,99.90
2022-11-24T07:07:12.986Z,100.00
2022-11-24T07:09:39.753Z,100.00
2022-11-24T07:12:06.750Z,100.00
2022-11-24T07:14:33.870Z,100.00
2022-11-24T07:17:02.707Z,100.00
2022-11-24T07:19:29.596Z,100.00
2022-11-24T07:21:56.817Z,100.00
2022-11-24T07:24:26.163Z,100.00
2022-11-24T07:26:52.950Z,100.00
2022-11-24T07:29:19.725Z,100.00
2022-11-24T07:31:46.459Z,100.00
2022-11-24T07:34:14.917Z,100.00
2022-11-24T07:36:42.860Z,100.00
2022-11-24T07:39:09.834Z,100.00
2022-11-24T07:41:36.609Z,100.00
2022-11-24T07:44:03.523Z,100.00
2022-11-24T07:46:31.790Z,100.00
2022-11-24T07:48:58.582Z,100.00
2022-11-24T07:51:25.345Z,100.00
2022-11-24T07:53:52.186Z,100.00
2022-11-24T07:56:18.906Z,100.00
2022-11-24T07:58:49.710Z,100.00
2022-11-24T08:01:18.811Z,100.00
2022-11-24T08:03:46.431Z,100.00
2022-11-24T08:06:38.730Z,100.00
2022-11-24T08:09:01.945Z,100.00
2022-11-24T08:11:31.562Z,100.00
2022-11-24T08:13:58.453Z,100.00
2022-11-24T08:16:25.499Z,100.00
2022-11-24T08:18:54.531Z,100.00
2022-11-24T08:21:23.531Z,100.00
2022-11-24T08:23:54.237Z,99.40
2022-11-24T08:26:21.014Z,99.43
2022-11-24T08:28:53.016Z,99.39
2022-11-24T08:31:19.874Z,99.57
2022-11-24T08:33:47.149Z,99.20
2022-11-24T08:36:16.728Z,99.70
2022-11-24T08:38:44.984Z,99.40
2022-11-24T08:41:15.758Z,99.59
2022-11-24T08:43:43.111Z,99.41
2022-11-24T08:46:12.661Z,99.48
2022-11-24T08:48:40.140Z,99.89
2022-11-24T08:51:09.465Z,99.85
2022-11-24T08:53:36.537Z,99.84
2022-11-24T08:56:05.057Z,99.78
2022-11-24T08:58:32.892Z,99.76
2022-11-24T09:01:08.663Z,99.55
2022-11-24T09:03:35.575Z,100.00
2022-11-24T09:06:04.045Z,100.00
2022-11-24T09:08:31.603Z,99.92
2022-11-24T09:11:08.312Z,99.94
2022-11-24T09:13:35.411Z,99.95
2022-11-24T09:16:06.986Z,99.86
2022-11-24T09:18:33.927Z,99.96
2022-11-24T09:21:13.670Z,100.00
2022-11-24T09:23:41.339Z,100.00
2022-11-24T09:26:11.464Z,99.59
2022-11-24T09:28:38.114Z,100.00
2022-11-24T09:31:06.666Z,99.99
2022-11-24T09:33:34.053Z,99.91
2022-11-24T09:36:01.507Z,99.84
2022-11-24T09:38:28.758Z,99.69
2022-11-24T09:40:56.178Z,99.75
2022-11-24T09:43:42.682Z,99.29
2022-11-24T09:46:19.973Z,99.90
2022-11-24T09:48:51.325Z,99.88
2022-11-24T09:51:28.854Z,99.55
2022-11-24T09:53:59.559Z,99.63
2022-11-24T09:56:34.519Z,99.67
2022-11-24T09:59:03.187Z,99.95
2022-11-24T10:01:32.775Z,99.79
2022-11-24T10:04:05.949Z,99.91
2022-11-24T10:06:44.516Z,99.63
2022-11-24T10:09:33.154Z,99.88
2022-11-24T10:12:06.598Z,99.97
2022-11-24T10:14:47.642Z,99.38
2022-11-24T10:17:34.451Z,99.38
2022-11-24T10:20:33.094Z,98.93
2022-11-24T10:23:21.912Z,99.43
2022-11-24T10:25:59.660Z,99.15
2022-11-24T10:28:49.721Z,98.93
2022-11-24T10:31:24.259Z,99.75
2022-11-24T10:33:51.310Z,99.72
2022-11-24T10:36:37.619Z,99.67
2022-11-24T10:39:15.888Z,99.77
2022-11-24T10:42:16.222Z,99.54
2022-11-24T10:44:43.462Z,99.55
2022-11-24T10:47:20.112Z,99.48
2022-11-24T10:50:01.707Z,99.31
2022-11-24T10:52:31.897Z,99.63
2022-11-24T10:55:01.027Z,99.92
2022-11-24T10:57:32.864Z,99.85
2022-11-24T11:00:00.954Z,99.89
2022-11-24T11:02:31.596Z,99.56
2022-11-24T11:04:58.540Z,99.77
2022-11-24T11:07:26.695Z,99.91
2022-11-24T11:10:25.292Z,99.59
2022-11-24T11:12:51.970Z,99.64
2022-11-24T11:15:27.753Z,99.73
2022-11-24T11:17:59.029Z,99.73
2022-11-24T11:20:35.348Z,99.54
2022-11-24T11:23:16.294Z,99.26
2022-11-24T11:25:43.955Z,99.96
2022-11-24T11:28:26.930Z,99.45
2022-11-24T11:31:18.582Z,99.38
2022-11-24T11:34:20.834Z,99.44
2022-11-24T11:36:56.311Z,99.63
2022-11-24T11:39:35.047Z,99.32
2022-11-24T11:42:59.973Z,99.17
2022-11-24T11:45:37.589Z,99.38
2022-11-24T11:48:04.482Z,99.25
2022-11-24T11:51:24.178Z,98.69
2022-11-24T11:54:06.208Z,99.54
2022-11-24T11:56:47.482Z,98.59
2022-11-24T11:59:47.524Z,98.18
2022-11-24T12:02:29.760Z,98.29
2022-11-24T12:05:01.253Z,97.90
2022-11-24T12:07:52.263Z,98.22
2022-11-24T12:10:42.291Z,98.40
2022-11-24T12:13:33.868Z,98.79
2022-11-24T12:16:15.350Z,98.53
2022-11-24T12:18:58.408Z,98.80
2022-11-24T12:21:38.796Z,98.91
2022-11-24T12:24:20.078Z,99.13
2022-11-24T12:26:57.365Z,99.01
2022-11-24T12:29:36.132Z,99.52
2022-11-24T12:32:23.445Z,99.45
2022-11-24T12:35:00.264Z,99.67
2022-11-24T12:37:52.596Z,99.53
2022-11-24T12:40:25.052Z,99.58
2022-11-24T12:43:10.341Z,99.30
2022-11-24T12:45:44.789Z,99.62
2022-11-24T12:48:36.216Z,99.28
2022-11-24T12:51:06.830Z,99.70
2022-11-24T12:53:34.864Z,99.52
2022-11-24T12:56:09.939Z,99.50
2022-11-24T12:58:45.903Z,99.55
2022-11-24T13:01:35.731Z,99.22
2022-11-24T13:04:40.507Z,99.09
2022-11-24T13:07:13.879Z,99.31
2022-11-24T13:10:18.991Z,99.50
2022-11-24T13:13:02.013Z,99.42
2022-11-24T13:15:45.577Z,99.90
2022-11-24T13:18:42.385Z,99.34
2022-11-24T13:21:31.072Z,99.64
2022-11-24T13:24:04.759Z,99.93
2022-11-24T13:26:43.488Z,99.57
2022-11-24T13:29:29.779Z,99.53
2022-11-24T13:32:17.877Z,100.00
2022-11-24T13:34:45.979Z,100.00
2022-11-24T13:37:31.918Z,99.98
2022-11-24T13:40:14.761Z,100.00
2022-11-24T13:42:57.423Z,99.67
2022-11-24T13:45:39.417Z,99.74
2022-11-24T13:48:21.944Z,99.78
2022-11-24T13:50:55.047Z,99.73
2022-11-24T13:53:41.048Z,99.38
2022-11-24T13:56:13.891Z,99.50
2022-11-24T13:58:42.065Z,99.39
2022-11-24T14:01:30.267Z,99.31
2022-11-24T14:04:31.830Z,99.23
2022-11-24T14:07:13.714Z,99.14
2022-11-24T14:09:50.278Z,99.38
2022-11-24T14:12:20.972Z,99.05
2022-11-24T14:14:50.056Z,99.42
2022-11-24T14:17:21.242Z,98.92
2022-11-24T14:19:50.906Z,98.71
2022-11-24T14:22:34.849Z,98.77
2022-11-24T14:25:02.699Z,98.71
2022-11-24T14:27:38.464Z,98.48
2022-11-24T14:30:26.155Z,97.74
2022-11-24T14:32:57.761Z,98.49
2022-11-24T14:35:28.089Z,97.96
2022-11-24T14:37:55.027Z,98.06
2022-11-24T14:40:45.750Z,97.67
2022-11-24T14:43:29.528Z,97.72
2022-11-24T14:46:24.362Z,98.04
2022-11-24T14:48:53.166Z,98.08
2022-11-24T14:51:45.022Z,97.73
2022-11-24T14:54:20.444Z,97.78
2022-11-24T14:57:24.315Z,98.03
2022-11-24T15:00:06.322Z,97.99
2022-11-24T15:02:49.883Z,98.19
2022-11-24T15:05:17.563Z,98.08
2022-11-24T15:07:46.697Z,98.25
2022-11-24T15:10:36.619Z,97.97
2022-11-24T15:13:17.615Z,97.81
2022-11-24T15:15:51.567Z,97.72
2022-11-24T15:18:43.339Z,97.72
2022-11-24T15:21:17.244Z,97.82
2022-11-24T15:24:05.111Z,96.81
2022-11-24T15:26:36.864Z,96.98
2022-11-24T15:29:05.364Z,96.97
2022-11-24T15:31:32.604Z,96.62
2022-11-24T15:33:59.361Z,96.42
2022-11-24T15:36:26.072Z,96.60
2022-11-24T15:38:53.018Z,96.62
2022-11-24T15:41:23.208Z,95.90
2022-11-24T15:43:49.978Z,96.25
2022-11-24T15:46:17.469Z,96.54
2022-11-24T15:48:44.257Z,95.81
2022-11-24T15:51:15.008Z,95.71
2022-11-24T15:53:47.857Z,95.67
2022-11-24T15:56:21.837Z,95.74
2022-11-24T15:58:48.758Z,96.19
2022-11-24T16:01:15.592Z,96.01
2022-11-24T16:03:47.432Z,95.81
2022-11-24T16:06:24.118Z,95.88
2022-11-24T16:08:51.921Z,95.80
2022-11-24T16:11:18.743Z,95.90
2022-11-24T16:13:50.334Z,96.00
2022-11-24T16:16:19.570Z,95.60
2022-11-24T16:18:46.491Z,95.82
2022-11-24T16:21:13.490Z,95.77
2022-11-24T16:23:40.354Z,95.12
2022-11-24T16:26:07.715Z,95.30
2022-11-24T16:28:34.847Z,94.76
2022-11-24T16:31:01.845Z,94.88
2022-11-24T16:33:30.189Z,94.63
2022-11-24T16:35:57.040Z,94.37
2022-11-24T16:38:24.066Z,93.90
2022-11-24T16:40:52.587Z,93.98
2022-11-24T16:43:19.433Z,93.66
2022-11-24T16:45:46.763Z,93.72
2022-11-24T16:48:13.631Z,93.51
2022-11-24T16:50:40.442Z,93.34
2022-11-24T16:53:07.227Z,93.17
2022-11-24T16:55:33.968Z,92.95
2022-11-24T16:58:03.480Z,92.93
2022-11-24T17:00:30.316Z,92.68
2022-11-24T17:02:57.085Z,92.76
2022-11-24T17:05:24.607Z,92.92
2022-11-24T17:07:51.423Z,92.87
2022-11-24T17:10:18.140Z,92.74
2022-11-24T17:12:44.992Z,92.49
2022-11-24T17:20:45.704Z,92.61
2022-11-24T17:23:12.757Z,92.38
2022-11-24T17:25:39.543Z,92.19
2022-11-24T17:28:06.322Z,92.64
2022-11-24T17:30:33.638Z,92.41
2022-11-24T17:33:00.342Z,92.54
2022-11-24T17:35:27.132Z,92.78
2022-11-24T17:37:53.827Z,92.73
2022-11-24T17:40:28.362Z,92.60
2022-11-24T17:43:02.081Z,92.44
2022-11-24T17:45:30.574Z,92.61
2022-11-24T17:48:00.919Z,92.43
2022-11-24T17:50:27.819Z,92.57
2022-11-24T17:52:54.680Z,92.63
2022-11-24T17:55:21.844Z,92.44
2022-11-24T17:57:48.703Z,92.55
2022-11-24T18:00:15.963Z,92.23
2022-11-24T18:02:42.895Z,92.37
2022-11-24T18:05:09.773Z,92.42
2022-11-24T18:07:37.123Z,92.09
2022-11-24T18:10:04.542Z,92.21
2022-11-24T18:12:33.147Z,92.21
2022-11-24T18:15:00.098Z,92.03
2022-11-24T18:17:29.181Z,91.74
2022-11-24T18:19:56.191Z,92.14
2022-11-24T18:22:36.984Z,91.81
2022-11-24T18:25:09.986Z,92.04
2022-11-24T18:27:36.738Z,91.78
2022-11-24T18:30:04.171Z,91.81
2022-11-24T18:32:32.151Z,92.15
2022-11-24T18:34:59.130Z,92.25
2022-11-24T18:37:25.869Z,92.34
2022-11-24T18:39:52.678Z,92.20
2022-11-24T18:42:20.982Z,92.21
2022-11-24T18:44:51.134Z,92.25
2022-11-24T18:47:20.882Z,92.04
2022-11-24T18:49:48.426Z,92.38
2022-11-24T18:52:15.163Z,92.19
2022-11-24T18:54:42.063Z,92.58
2022-11-24T18:57:08.778Z,92.13
2022-11-24T18:59:35.588Z,92.69
2022-11-24T19:02:02.393Z,92.30
2022-11-24T19:04:29.151Z,92.52
2022-11-24T19:06:57.224Z,92.57
2022-11-24T19:09:25.592Z,93.09
2022-11-24T19:11:52.413Z,92.68
2022-11-24T19:14:19.752Z,93.14
2022-11-24T19:16:48.218Z,92.92
2022-11-24T19:19:17.104Z,92.94
2022-11-24T19:21:44.357Z,93.13
2022-11-24T19:24:11.210Z,93.23
2022-11-24T19:26:38.991Z,93.14
2022-11-24T19:29:06.697Z,93.08
2022-11-24T19:31:34.524Z,93.20
2022-11-24T19:34:03.177Z,93.20
2022-11-24T19:36:30.062Z,93.03
2022-11-24T19:38:57.827Z,92.71
2022-11-24T19:41:29.349Z,92.24
2022-11-24T19:43:58.093Z,92.61
2022-11-24T19:46:27.534Z,92.76
2022-11-24T19:48:56.302Z,93.11
2022-11-24T19:51:26.136Z,93.79
2022-11-24T19:53:53.296Z,94.04
2022-11-24T19:56:21.855Z,93.93
2022-11-24T19:58:50.281Z,94.32
2022-11-24T20:01:21.402Z,94.43
2022-11-24T20:03:54.020Z,94.24
2022-11-24T20:06:20.732Z,94.47
2022-11-24T20:08:47.520Z,94.64
2022-11-24T20:11:18.371Z,94.90
2022-11-24T20:13:46.413Z,95.00
2022-11-24T20:16:15.925Z,94.79
2022-11-24T20:18:45.629Z,95.16
2022-11-24T20:21:18.505Z,95.10
2022-11-24T20:23:51.379Z,95.05
2022-11-24T20:26:20.894Z,95.31
2022-11-24T20:28:47.810Z,95.61
2022-11-24T20:31:17.999Z,95.34
2022-11-24T20:33:45.412Z,95.30
2022-11-24T20:36:18.663Z,95.37
2022-11-24T20:38:47.224Z,95.24
2022-11-24T20:41:20.170Z,95.27
2022-11-24T20:43:47.988Z,95.07
2022-11-24T20:46:17.765Z,95.18
2022-11-24T20:48:45.203Z,95.60
2022-11-24T20:51:18.070Z,95.52
2022-11-24T20:53:44.850Z,95.64
2022-11-24T20:56:15.133Z,95.63
2022-11-24T20:58:42.581Z,95.48
2022-11-24T21:01:18.793Z,95.04
2022-11-24T21:03:47.387Z,95.39
2022-11-24T21:06:14.693Z,95.21
2022-11-24T21:08:42.672Z,95.43
2022-11-24T21:11:12.028Z,95.28
2022-11-24T21:13:40.394Z,95.09
2022-11-24T21:16:18.893Z,94.96
2022-11-24T21:18:47.693Z,95.00
2022-11-24T21:21:14.933Z,95.26
2022-11-24T21:23:41.852Z,94.91
2022-11-24T21:26:14.770Z,94.76
2022-11-24T21:28:45.044Z,94.78
2022-11-24T21:31:20.463Z,94.19
2022-11-24T21:33:49.653Z,94.50
2022-11-24T21:36:22.046Z,94.29
2022-11-24T21:38:54.090Z,94.06
2022-11-24T21:41:21.762Z,94.13
2022-11-24T21:43:50.101Z,94.30
2022-11-24T21:46:17.794Z,94.53
2022-11-24T21:48:44.827Z,94.54
2022-11-24T21:51:16.276Z,94.20
2022-11-24T21:53:45.415Z,94.21
2022-11-24T21:56:20.548Z,94.41
2022-11-24T21:58:52.701Z,94.67
2022-11-24T22:01:20.873Z,94.45
2022-11-24T22:03:47.922Z,94.13
2022-11-24T22:06:15.519Z,94.06
2022-11-24T22:08:42.316Z,93.67
2022-11-24T22:11:12.955Z,93.35
2022-11-24T22:13:40.756Z,93.51
2022-11-24T22:16:21.642Z,93.09
2022-11-24T22:18:49.251Z,93.27
2022-11-24T22:21:29.370Z,93.16
2022-11-24T22:23:56.013Z,94.41
2022-11-24T22:26:24.074Z,93.68
2022-11-24T22:28:51.094Z,93.38
2022-11-24T22:31:20.802Z,93.24
2022-11-24T22:33:48.548Z,93.67
2022-11-24T22:36:16.723Z,93.48
2022-11-24T22:38:43.911Z,93.56
2022-11-24T22:41:16.337Z,93.25
2022-11-24T22:43:44.444Z,93.40
2022-11-24T22:46:15.841Z,93.49
2022-11-24T22:48:43.844Z,93.90
2022-11-24T22:51:13.238Z,93.39
2022-11-24T22:53:40.593Z,93.65
2022-11-24T22:56:10.151Z,93.61
2022-11-24T22:58:38.041Z,93.60
2022-11-24T23:01:34.574Z,93.49
2022-11-24T23:04:02.107Z,93.46
2022-11-24T23:06:30.663Z,93.76
2022-11-24T23:08:59.183Z,93.52
2022-11-24T23:11:37.212Z,93.44
2022-11-24T23:14:11.828Z,93.60
2022-11-24T23:16:39.334Z,93.69
2022-11-24T23:19:06.256Z,93.45
2022-11-24T23:21:36.251Z,93.42
2022-11-24T23:24:04.531Z,93.48
2022-11-24T23:26:37.284Z,93.45
2022-11-24T23:29:06.958Z,93.92
2022-11-24T23:31:34.017Z,93.97
2022-11-24T23:34:04.642Z,93.76
2022-11-24T23:36:33.643Z,94.11
2022-11-24T23:39:09.311Z,93.47
2022-11-24T23:41:36.308Z,93.63
2022-11-24T23:44:03.813Z,93.10
2022-11-24T23:46:31.103Z,93.29
2022-11-24T23:48:58.432Z,93.37
2022-11-24T23:51:30.073Z,92.90
2022-11-24T23:53:57.307Z,93.17
2022-11-24T23:56:32.637Z,93.21
2022-11-24T23:59:01.487Z,93.12
